Aviation Digital Data Service (ADDS)

Output produced by METARs form (1708 UTC 24 April 2017)
found at http://www.aviationweather.gov/adds/metars/
 
OEAB 241600Z 21005KT CAVOK 22/11 Q1023 NOSIG
TAF OEAB 241100Z 2412/2518 20014KT 9999 FEW020 
     BECMG 2418/2420 VRB03KT 
       
OEAH 241600Z 00000KT CAVOK 34/M06 Q1007 NOSIG
TAF OEAH 241100Z 2412/2518 08014KT 7000 SKC 
     BECMG 2418/2420 VRB03KT
       
OEBA 241600Z 23008KT CAVOK 27/12 Q1018 NOSIG
TAF OEBA 241100Z 2412/2518 22014KT 9999 FEW030 
     BECMG 2418/2420 VRB03KT 
       
OESK 241600Z 00000KT 1500 HZ SKC 27/02 Q1014 NOSIG
TAF OESK 241100Z 2412/2518 08008G18KT 6000 SKC 
     TEMPO 2412/2424 3500 DU BLDU 
     PROB30 
     TEMPO 2412/2418 1000
       
OERR 241600Z 03008KT 2000 DU SKC 24/10 Q1014 NOSIG
TAF OERR 241100Z 2412/2518 04008G18KT 6000 SKC 
     TEMPO 2412/2424 3500 DU BLDU 
     PROB30 
     TEMPO 2412/2418 1000
       
OEBH 241600Z 06011KT CAVOK 31/M05 Q1013 NOSIG
TAF OEBH 241100Z 2412/2518 08012KT CAVOK 
     BECMG 2418/2420 VRB03KT 
       
OEGS 241600Z 34018KT 6000 SCT040 36/11 Q1008
TAF OEGS 241100Z 2412/2518 27015KT 7000 SCT040 SCT100 
     TEMPO 2412/2424 3500 BLDU TSRA FEW035CB 
     BECMG 2416/2418 36006G16KT
       
OEGT 241600Z 29014KT CAVOK 22/03 Q1014 NOSIG
TAF OEGT 241100Z 2412/2518 30010G20KT 7000 FEW040
       
OEHL 241600Z 03006KT 1100 DU SCT045 BKN100 25/09 Q1014
TAF OEHL 241100Z 2412/2518 02008G18KT 7000 SCT040 SCT100 
     TEMPO 2412/2424 3500 BLDU TSRA FEW035CB 
     PROB30 
     TEMPO 2412/2418 1000
       
OEGN 241600Z 36006KT CAVOK 34/22 Q1006 NOSIG
TAF OEGN 241100Z 2412/2518 22014KT 8000 FEW030 
     BECMG 2415/2417 10010KT 
       
OEDR 241700Z 07007KT CAVOK 28/13 Q1006 NOSIG
TAF OEDR 241435Z 2418/2524 VRB05KT CAVOK 
     BECMG 2507/2509 36014KT 7000 SKC
       
OEJN 241700Z 01012KT CAVOK 28/23 Q1007 NOSIG
TAF OEJN 241700Z 2418/2524 36006KT 7000 NSC 
     BECMG 2506/2508 32015KT
       
OEDF 241700Z 04005KT 8000 SKC 29/09 Q1007 NOSIG
TAF OEDF 241435Z 2418/2524 VRB05KT CAVOK BSCMG 2507/2509 36014KT 7000 SKC
       
OEKM 241600Z 22010KT 9999 FEW020 23/09 Q1022 NOSIG
TAF OEKM 241100Z 2412/2518 20014KT 9999 FEW020 
     BECMG 2418/2420 VRB03KT 
       
OERK 241700Z 14005KT CAVOK 32/M08 Q1011 NOSIG
TAF OERK 241700Z 2418/2524 VRB03KT 8000 NSC 
     BECMG 2506/2508 24013KT 
     TEMPO 2509/2518 4000 DU
       
OEKK 241600Z 33010KT 9999 FEW035 36/17 Q1007 NOSIG
TAF OEKK 240500Z 2406/2420 15012KT 6000 SCT040 BKN100 
     TEMPO 2406/2412 2000 BLDU 
     BECMG 2412/2414 22015KT 
     TEMPO 2415/2420 TS/BLDU FEW035CB
       
OENG 241600Z 11008KT CAVOK 32/M04 Q1013 NOSIG
TAF OENG 241100Z 2412/2518 07012KT CAVOK 
     BECMG 2418/2420 VRB03KT 
       
OEMA 241700Z 24011KT 9999 FEW045 35/01 Q1012 NOSIG
TAF OEMA 241700Z 2418/2524 13006KT 7000 FEW045 
     BECMG 2508/2510 25015KT
       
OEPA 241600Z 12010KT 9999 SCT040 SCT100 36/14 Q1007 NOSIG
TAF OEPA 241100Z 2412/2518 36010G20KT 6000 SCT040 SCT100 
     TEMPO 2412/2424 3500 BLDU TSRA FEW035CB 
     PROB30 
     TEMPO 2412/2418 1000
       
OERF 241600Z 36014KT 2500 BLDU BKN040 26/05 Q1011
TAF OERF 241100Z 2412/2518 36010G20KT 6000 SCT040 SCT100 
     TEMPO 2412/2424 3500 BLDU TSRA FEW035CB 
     PROB30 
     TEMPO 2412/2418 1000
       
TAF AMD OERT 232300Z 2400/2506 33010G20KT 7000 SCT040 
     TEMPO 2400/2412 4000 BLDU BKN100 
     PROB30 
     TEMPO 2406/2412 1000
       
TAF OERY 241100Z 2412/2518 18014KT CAVOK 
     BECMG 2418/2420 VRB03KT
       
OESH 241600Z 07005KT CAVOK 34/M10 Q1011 NOSIG
TAF OESH 241100Z 2412/2518 04012KT CAVOK 
     BECMG 2418/2420 VRB03KT 
       
OETB 241600Z 30010KT CAVOK 26/M03 Q1013 NOSIG
TAF OETB 241100Z 2412/2518 36014KT 8000 SKC 
     BECMG 2418/2420 VRB03KT
       
OETF 241600Z 25014KT CAVOK 27/11 Q1017 NOSIG
TAF OETF 241700Z 2418/2512 VRB03KT CAVOK 
     BECMG 2506/2508 12010KT 
     BECMG 2510/2512 29013KT
       
OETR 241600Z 35006KT CAVOK 21/M01 Q1016 NOSIG
TAF OETR 241100Z 2412/2518 30010G20KT 7000 FEW040
       
OEWD 241600Z 10006KT CAVOK 33/09 Q1009 NOSIG
TAF OEWD 241100Z 2412/2518 09012KT CAVOK 
     BECMG 2418/2420 VRB03KT 
       
OEWJ 241600Z 31014KT CAVOK 26/18 Q1009 NOSIG
TAF OEWJ 241100Z 2412/2518 30010G20KT 7000 FEW040 
     TEMPO 2412/2418 4000 DU BLDU 
     PROB30 
     TEMPO 2412/2416 2000 
       
OEYN 241600Z 27012KT 6000 FEW040 30/20 Q1005 NOSIG
TAF OEYN 241100Z 2412/2518 27015KT 7000 FEW040 
     TEMPO 2412/2418 4000 BLDU 
     BECMG 2418/2420 VRB03KT